createdAt,value
2022-09-12T00:00:23.892Z,53.14
2022-09-12T00:02:54.418Z,52.89
2022-09-12T00:05:21.499Z,52.89
2022-09-12T00:07:48.002Z,52.90
2022-09-12T00:10:14.739Z,52.93
2022-09-12T00:12:41.355Z,52.73
2022-09-12T00:15:08.288Z,53.03
2022-09-12T00:17:35.390Z,52.89
2022-09-12T00:20:02.303Z,52.85
2022-09-12T00:22:28.757Z,52.77
2022-09-12T00:24:55.280Z,52.65
2022-09-12T00:27:21.807Z,52.85
2022-09-12T00:29:48.276Z,52.59
2022-09-12T00:32:14.729Z,52.81
2022-09-12T00:34:41.525Z,52.74
2022-09-12T00:37:07.964Z,52.77
2022-09-12T00:39:35.442Z,52.67
2022-09-12T00:42:01.890Z,52.76
2022-09-12T00:44:28.389Z,52.69
2022-09-12T00:46:59.020Z,52.69
2022-09-12T00:49:25.331Z,52.57
2022-09-12T00:51:55.243Z,52.51
2022-09-12T00:54:23.976Z,52.78
2022-09-12T00:56:51.100Z,52.53
2022-09-12T00:59:21.335Z,52.48
2022-09-12T01:01:48.710Z,52.69
2022-09-12T01:04:15.226Z,52.39
2022-09-12T01:06:43.169Z,52.47
2022-09-12T01:09:13.400Z,52.50
2022-09-12T01:11:39.911Z,52.37
2022-09-12T01:14:07.305Z,52.52
2022-09-12T01:16:37.109Z,52.38
2022-09-12T01:19:31.889Z,52.46
2022-09-12T01:22:17.020Z,52.42
2022-09-12T01:25:02.324Z,52.33
2022-09-12T01:27:53.470Z,52.54
2022-09-12T01:30:30.437Z,52.51
2022-09-12T01:33:02.899Z,52.25
2022-09-12T01:35:35.126Z,52.28
2022-09-12T01:38:11.790Z,52.20
2022-09-12T01:40:50.091Z,52.27
2022-09-12T01:43:18.847Z,52.31
2022-09-12T01:45:53.338Z,52.29
2022-09-12T01:48:21.688Z,52.12
2022-09-12T01:50:53.273Z,52.01
2022-09-12T01:53:25.833Z,52.15
2022-09-12T01:56:05.417Z,52.10
2022-09-12T02:01:34.659Z,52.18
2022-09-12T02:04:08.779Z,52.10
2022-09-12T02:06:44.887Z,52.01
2022-09-12T02:09:14.894Z,52.11
2022-09-12T02:11:42.404Z,52.09
2022-09-12T02:14:13.960Z,52.37
2022-09-12T02:16:42.437Z,52.13
2022-09-12T02:19:11.121Z,52.19
2022-09-12T02:21:37.659Z,51.92
2022-09-12T02:24:04.156Z,52.15
2022-09-12T02:26:41.181Z,52.35
2022-09-12T02:29:07.626Z,52.15
2022-09-12T02:31:37.549Z,52.17
2022-09-12T02:34:08.100Z,52.26
2022-09-12T02:37:08.217Z,52.43
2022-09-12T02:39:35.015Z,52.34
2022-09-12T02:42:01.464Z,51.94
2022-09-12T02:44:31.783Z,52.01
2022-09-12T02:47:10.883Z,52.19
2022-09-12T02:49:40.234Z,51.82
2022-09-12T02:52:07.003Z,51.69
2022-09-12T02:54:33.466Z,51.85
2022-09-12T02:56:59.938Z,51.89
2022-09-12T02:59:26.446Z,51.63
2022-09-12T03:02:13.506Z,51.79
2022-09-12T03:05:04.822Z,51.85
2022-09-12T03:08:02.351Z,51.80
2022-09-12T03:10:41.791Z,51.89
2022-09-12T03:13:29.855Z,51.60
2022-09-12T03:16:21.342Z,51.75
2022-09-12T03:19:23.901Z,52.06
2022-09-12T03:22:02.338Z,51.94
2022-09-12T03:24:42.387Z,52.05
2022-09-12T03:27:10.566Z,52.03
2022-09-12T03:29:37.275Z,52.00
2022-09-12T03:32:03.776Z,51.98
2022-09-12T03:34:30.279Z,51.97
2022-09-12T03:36:56.888Z,52.01
2022-09-12T03:39:26.913Z,51.91
2022-09-12T03:41:54.429Z,51.75
2022-09-12T03:44:20.876Z,51.76
2022-09-12T03:46:47.330Z,51.75
2022-09-12T03:49:13.839Z,51.93
2022-09-12T03:51:40.343Z,51.84
2022-09-12T03:54:06.935Z,51.77
2022-09-12T03:56:33.404Z,51.87
2022-09-12T03:58:59.875Z,51.69
2022-09-12T04:01:26.413Z,51.74
2022-09-12T04:03:52.990Z,51.56
2022-09-12T04:06:21.043Z,51.54
2022-09-12T04:08:52.317Z,51.77
2022-09-12T04:11:20.024Z,51.79
2022-09-12T04:13:46.632Z,51.65
2022-09-12T04:16:14.030Z,51.71
2022-09-12T04:18:40.541Z,51.91
2022-09-12T04:21:08.702Z,51.70
2022-09-12T04:23:35.167Z,51.80
2022-09-12T04:26:02.472Z,51.65
2022-09-12T04:28:29.359Z,51.73
2022-09-12T04:30:56.108Z,51.68
2022-09-12T04:33:22.682Z,51.64
2022-09-12T04:35:49.414Z,51.62
2022-09-12T04:38:15.867Z,51.69
2022-09-12T04:40:42.317Z,51.61
2022-09-12T04:43:14.282Z,51.65
2022-09-12T04:45:41.137Z,51.51
2022-09-12T04:48:07.651Z,51.56
2022-09-12T04:50:34.109Z,51.50
2022-09-12T04:53:00.592Z,51.62
2022-09-12T04:55:27.079Z,51.34
2022-09-12T04:57:53.727Z,51.39
2022-09-12T05:00:20.531Z,51.41
2022-09-12T05:02:47.028Z,51.49
2022-09-12T05:05:13.491Z,51.43
2022-09-12T05:07:40.361Z,51.60
2022-09-12T05:10:07.312Z,51.34
2022-09-12T05:12:33.895Z,51.51
2022-09-12T05:15:00.352Z,51.72
2022-09-12T05:17:29.249Z,51.74
2022-09-12T05:19:55.767Z,51.27
2022-09-12T05:22:22.779Z,51.32
2022-09-12T05:24:50.673Z,51.20
2022-09-12T05:27:17.323Z,51.26
2022-09-12T05:29:43.776Z,51.21
2022-09-12T05:32:10.252Z,51.26
2022-09-12T05:34:37.910Z,51.17
2022-09-12T05:37:04.436Z,51.35
2022-09-12T05:39:30.907Z,51.28
2022-09-12T05:41:57.384Z,51.23
2022-09-12T05:44:24.845Z,51.27
2022-09-12T05:46:53.511Z,51.26
2022-09-12T05:49:21.385Z,51.14
2022-09-12T05:51:47.838Z,51.08
2022-09-12T05:54:16.059Z,50.84
2022-09-12T05:56:43.873Z,50.91
2022-09-12T05:59:15.070Z,50.68
2022-09-12T06:01:41.620Z,50.75
2022-09-12T06:04:08.147Z,50.77
2022-09-12T06:06:42.429Z,50.67
2022-09-12T06:09:08.984Z,50.73
2022-09-12T06:11:37.190Z,50.28
2022-09-12T06:14:04.035Z,50.68
2022-09-12T06:16:31.826Z,50.60
2022-09-12T06:18:59.890Z,50.71
2022-09-12T06:21:26.680Z,51.04
2022-09-12T06:23:56.453Z,50.80
2022-09-12T06:26:25.453Z,50.81
2022-09-12T06:28:52.622Z,50.75
2022-09-12T06:31:20.487Z,50.77
2022-09-12T06:33:48.800Z,50.77
2022-09-12T06:36:17.031Z,50.60
2022-09-12T06:38:44.010Z,50.76
2022-09-12T06:41:14.027Z,50.68
2022-09-12T06:43:41.069Z,50.19
2022-09-12T06:46:08.016Z,50.21
2022-09-12T06:48:36.478Z,49.85
2022-09-12T06:51:07.498Z,50.10
2022-09-12T06:53:34.248Z,49.98
2022-09-12T06:56:02.058Z,49.59
2022-09-12T06:58:29.078Z,49.55
2022-09-12T07:01:03.523Z,49.73
2022-09-12T07:03:30.328Z,51.88
2022-09-12T07:05:56.775Z,52.04
2022-09-12T07:08:23.266Z,52.89
2022-09-12T07:10:49.718Z,53.03
2022-09-12T07:13:16.155Z,53.68
2022-09-12T07:15:42.860Z,53.30
2022-09-12T07:18:10.092Z,53.92
2022-09-12T07:20:39.247Z,53.60
2022-09-12T07:23:05.699Z,53.27
2022-09-12T07:25:32.156Z,53.88
2022-09-12T07:27:58.694Z,54.06
2022-09-12T07:30:25.168Z,54.05
2022-09-12T07:32:55.923Z,54.37
2022-09-12T07:35:25.110Z,54.56
2022-09-12T07:37:51.705Z,54.98
2022-09-12T07:40:18.256Z,54.58
2022-09-12T07:42:44.763Z,54.69
2022-09-12T07:45:11.259Z,54.58
2022-09-12T07:47:37.775Z,54.29
2022-09-12T07:50:04.421Z,54.45
2022-09-12T07:52:31.268Z,55.51
2022-09-12T07:54:57.815Z,54.03
2022-09-12T07:57:25.693Z,54.44
2022-09-12T07:59:55.138Z,54.72
2022-09-12T08:02:21.639Z,54.12
2022-09-12T08:04:49.217Z,54.08
2022-09-12T08:07:15.762Z,54.27
2022-09-12T08:09:42.268Z,53.94
2022-09-12T08:12:08.715Z,53.92
2022-09-12T08:14:35.199Z,54.01
2022-09-12T08:17:01.663Z,53.94
2022-09-12T08:19:28.138Z,53.79
2022-09-12T08:21:55.693Z,53.97
2022-09-12T08:24:22.233Z,53.87
2022-09-12T08:26:48.706Z,53.55
2022-09-12T08:29:15.210Z,54.07
2022-09-12T08:31:42.476Z,53.85
2022-09-12T08:34:08.964Z,54.82
2022-09-12T08:36:35.589Z,54.00
2022-09-12T08:39:04.566Z,53.62
2022-09-12T08:41:40.722Z,53.74
2022-09-12T08:44:15.856Z,53.87
2022-09-12T08:47:10.346Z,53.72
2022-09-12T08:50:12.434Z,53.39
2022-09-12T08:52:58.873Z,53.16
2022-09-12T08:55:26.694Z,52.96
2022-09-12T08:57:53.236Z,52.92
2022-09-12T09:00:20.060Z,52.95
2022-09-12T09:03:00.161Z,52.60
2022-09-12T09:05:44.890Z,52.87
2022-09-12T09:08:43.144Z,52.51
2022-09-12T09:11:15.489Z,52.85
2022-09-12T09:14:19.095Z,52.67
2022-09-12T09:16:46.362Z,52.55
2022-09-12T09:19:16.585Z,52.63
2022-09-12T09:21:57.549Z,52.72
2022-09-12T09:24:26.868Z,52.65
2022-09-12T09:26:55.040Z,52.58
2022-09-12T09:29:24.055Z,52.97
2022-09-12T09:31:52.989Z,52.46
2022-09-12T09:34:23.381Z,52.60
2022-09-12T09:36:50.849Z,53.08
2022-09-12T09:39:24.537Z,52.87
2022-09-12T09:42:26.295Z,52.78
2022-09-12T09:44:53.111Z,52.29
2022-09-12T09:47:19.839Z,52.32
2022-09-12T09:49:46.336Z,52.20
2022-09-12T09:52:15.675Z,51.95
2022-09-12T09:55:05.271Z,51.94
2022-09-12T09:57:34.605Z,52.01
2022-09-12T10:00:21.903Z,51.76
2022-09-12T10:03:13.733Z,51.80
2022-09-12T10:06:00.313Z,51.66
2022-09-12T10:08:35.247Z,51.42
2022-09-12T10:11:03.015Z,51.73
2022-09-12T10:13:56.772Z,51.61
2022-09-12T10:16:48.249Z,51.42
2022-09-12T10:19:24.568Z,51.43
2022-09-12T10:21:51.601Z,51.34
2022-09-12T10:24:21.004Z,51.27
2022-09-12T10:26:55.894Z,51.24
2022-09-12T10:29:31.409Z,51.40
2022-09-12T10:31:59.865Z,51.06
2022-09-12T10:34:37.191Z,51.22
2022-09-12T10:37:08.402Z,51.21
2022-09-12T10:39:36.133Z,50.89
2022-09-12T10:42:03.097Z,51.10
2022-09-12T10:44:31.038Z,50.94
2022-09-12T10:46:57.982Z,51.04
2022-09-12T10:49:29.493Z,51.00
2022-09-12T10:51:56.521Z,51.10
2022-09-12T10:54:25.134Z,50.99
2022-09-12T10:57:22.654Z,50.91
2022-09-12T11:00:18.079Z,51.04
2022-09-12T11:03:00.170Z,50.68
2022-09-12T11:05:41.766Z,50.32
2022-09-12T11:08:39.374Z,50.50
2022-09-12T11:11:05.707Z,50.04
2022-09-12T11:14:00.387Z,50.97
2022-09-12T11:16:28.964Z,50.84
2022-09-12T11:19:07.520Z,50.79
2022-09-12T11:21:57.997Z,50.87
2022-09-12T11:24:48.232Z,50.58
2022-09-12T11:27:35.512Z,51.00
2022-09-12T11:30:04.108Z,50.69
2022-09-12T11:32:42.330Z,50.67
2022-09-12T11:35:28.139Z,50.90
2022-09-12T11:38:20.708Z,51.02
2022-09-12T11:40:55.579Z,51.14
2022-09-12T11:43:30.951Z,51.44
2022-09-12T11:46:16.581Z,51.23
2022-09-12T11:48:53.962Z,51.23
2022-09-12T11:51:31.879Z,51.12
2022-09-12T11:54:23.284Z,51.09
2022-09-12T11:56:53.155Z,51.08
2022-09-12T11:59:31.151Z,51.29
2022-09-12T12:01:59.774Z,51.06
2022-09-12T12:04:35.294Z,50.87
2022-09-12T12:07:07.379Z,51.04
2022-09-12T12:09:34.001Z,51.21
2022-09-12T12:12:03.225Z,51.09
2022-09-12T12:14:39.159Z,51.06
2022-09-12T12:17:13.578Z,50.66
2022-09-12T12:19:40.042Z,50.69
2022-09-12T12:22:17.313Z,50.65
2022-09-12T12:25:08.845Z,50.64
2022-09-12T12:27:44.547Z,50.55
2022-09-12T12:30:28.925Z,50.53
2022-09-12T12:33:10.494Z,50.50
2022-09-12T12:35:41.514Z,50.40
2022-09-12T12:38:38.236Z,50.51
2022-09-12T12:41:16.727Z,50.26
2022-09-12T12:43:53.581Z,50.20
2022-09-12T12:46:26.846Z,50.12
2022-09-12T12:49:00.419Z,50.20
2022-09-12T12:51:30.914Z,50.12
2022-09-12T12:53:58.201Z,50.04
2022-09-12T12:56:34.925Z,49.93
2022-09-12T12:59:06.838Z,49.99
2022-09-12T13:01:40.348Z,50.00
2022-09-12T13:04:15.748Z,49.68
2022-09-12T13:06:44.275Z,50.09
2022-09-12T13:09:28.535Z,49.79
2022-09-12T13:12:19.240Z,49.72
2022-09-12T13:14:53.862Z,49.83
2022-09-12T13:17:39.776Z,49.65
2022-09-12T13:20:28.210Z,49.61
2022-09-12T13:22:55.363Z,49.74
2022-09-12T13:25:32.539Z,49.58
2022-09-12T13:27:59.792Z,49.47
2022-09-12T13:30:26.272Z,49.15
2022-09-12T13:32:53.047Z,49.21
2022-09-12T13:35:39.288Z,48.58
2022-09-12T13:38:09.030Z,48.95
2022-09-12T13:40:54.763Z,48.63
2022-09-12T13:43:26.790Z,48.23
2022-09-12T13:45:53.387Z,48.08
2022-09-12T13:48:21.888Z,47.60
2022-09-12T13:50:57.178Z,46.87
2022-09-12T13:53:25.090Z,47.46
2022-09-12T13:56:00.642Z,47.73
2022-09-12T13:58:31.404Z,47.51
2022-09-12T14:01:10.822Z,46.45
2022-09-12T14:04:15.703Z,46.61
2022-09-12T14:06:51.450Z,46.81
2022-09-12T14:09:26.875Z,45.93
2022-09-12T14:11:53.700Z,45.70
2022-09-12T14:14:37.383Z,46.06
2022-09-12T14:17:19.802Z,46.48
2022-09-12T14:19:49.773Z,45.78
2022-09-12T14:22:17.920Z,45.78
2022-09-12T14:24:50.465Z,46.28
2022-09-12T14:27:25.691Z,46.37
2022-09-12T14:30:25.404Z,46.59
2022-09-12T14:33:10.068Z,46.60
2022-09-12T14:35:52.502Z,45.82
2022-09-12T14:38:22.971Z,46.17
2022-09-12T14:40:52.237Z,45.87
2022-09-12T14:43:28.972Z,45.97
2022-09-12T14:46:03.589Z,46.03
2022-09-12T14:48:32.904Z,45.58
2022-09-12T14:50:59.381Z,46.15
2022-09-12T14:53:34.753Z,45.92
2022-09-12T14:56:13.340Z,45.91
2022-09-12T14:58:40.485Z,45.79
2022-09-12T15:01:07.162Z,45.90
2022-09-12T15:03:34.400Z,46.19
2022-09-12T15:06:02.729Z,46.29
2022-09-12T15:08:29.218Z,46.32
2022-09-12T15:10:55.751Z,46.01
2022-09-12T15:13:23.747Z,46.33
2022-09-12T15:15:57.582Z,46.41
2022-09-12T15:18:25.793Z,46.50
2022-09-12T15:20:54.849Z,46.18
2022-09-12T15:23:29.884Z,46.21
2022-09-12T15:25:56.348Z,45.83
2022-09-12T15:28:23.740Z,45.67
2022-09-12T15:30:51.275Z,45.87
2022-09-12T15:33:18.835Z,45.92
2022-09-12T15:35:45.632Z,45.60
2022-09-12T15:38:12.318Z,45.01
2022-09-12T15:40:38.915Z,44.82
2022-09-12T15:43:05.408Z,44.85
2022-09-12T15:45:33.083Z,45.34
2022-09-12T15:47:59.932Z,45.09
2022-09-12T15:50:28.072Z,45.38
2022-09-12T15:52:55.497Z,44.81
2022-09-12T15:55:28.084Z,44.77
2022-09-12T15:57:54.530Z,45.06
2022-09-12T16:00:21.136Z,45.23
2022-09-12T16:02:49.231Z,45.41
2022-09-12T16:05:20.832Z,45.51
2022-09-12T16:07:47.333Z,45.88
2022-09-12T16:10:15.356Z,45.82
2022-09-12T16:12:42.227Z,46.14
2022-09-12T16:15:15.076Z,46.33
2022-09-12T16:17:41.615Z,46.14
2022-09-12T16:20:09.368Z,46.39
2022-09-12T16:22:35.989Z,46.57
2022-09-12T16:25:02.476Z,46.63
2022-09-12T16:27:28.992Z,46.71
2022-09-12T16:29:55.498Z,46.68
2022-09-12T16:32:21.994Z,46.80
2022-09-12T16:34:48.650Z,47.02
2022-09-12T16:37:15.102Z,47.53
2022-09-12T16:39:41.576Z,47.93
2022-09-12T16:42:08.035Z,48.11
2022-09-12T16:44:34.483Z,48.19
2022-09-12T16:47:00.927Z,48.24
2022-09-12T16:49:27.396Z,48.39
2022-09-12T16:51:53.836Z,48.46
2022-09-12T16:54:20.343Z,48.50
2022-09-12T16:56:46.871Z,48.99
2022-09-12T16:59:16.255Z,49.22
2022-09-12T17:01:43.032Z,49.26
2022-09-12T17:04:10.021Z,49.45
2022-09-12T17:06:36.498Z,49.07
2022-09-12T17:09:04.554Z,49.14
2022-09-12T17:11:36.234Z,49.26
2022-09-12T17:14:05.812Z,49.34
2022-09-12T17:16:41.410Z,49.23
2022-09-12T17:19:07.994Z,49.29
2022-09-12T17:21:35.170Z,49.56
2022-09-12T17:24:01.786Z,49.37
2022-09-12T17:26:28.235Z,49.53
2022-09-12T17:28:54.711Z,49.49
2022-09-12T17:31:21.233Z,49.43
2022-09-12T17:33:47.880Z,49.46
2022-09-12T17:36:17.055Z,49.62
2022-09-12T17:38:44.805Z,49.71
2022-09-12T17:41:16.028Z,49.49
2022-09-12T17:43:42.611Z,49.76
2022-09-12T17:46:09.156Z,49.91
2022-09-12T17:48:36.011Z,50.23
2022-09-12T17:51:09.784Z,50.32
2022-09-12T17:53:36.248Z,50.75
2022-09-12T17:56:04.407Z,51.08
2022-09-12T17:58:31.477Z,50.70
2022-09-12T18:01:20.665Z,50.59
2022-09-12T18:03:47.351Z,50.75
2022-09-12T18:06:14.955Z,50.62
2022-09-12T18:08:41.429Z,50.90
2022-09-12T18:11:07.980Z,50.95
2022-09-12T18:13:34.494Z,50.90
2022-09-12T18:16:08.485Z,50.85
2022-09-12T18:18:35.138Z,50.80
2022-09-12T18:21:02.614Z,50.50
2022-09-12T18:23:29.332Z,50.88
2022-09-12T18:26:06.875Z,50.81
2022-09-12T18:28:34.379Z,50.64
2022-09-12T18:31:00.894Z,50.54
2022-09-12T18:33:27.371Z,50.57
2022-09-12T18:35:53.863Z,50.78
2022-09-12T18:38:20.419Z,50.60
2022-09-12T18:40:47.223Z,50.72
2022-09-12T18:43:14.358Z,50.69
2022-09-12T18:45:40.844Z,50.43
2022-09-12T18:48:07.429Z,50.26
2022-09-12T18:50:33.932Z,50.59
2022-09-12T18:53:00.395Z,50.28
2022-09-12T18:55:27.070Z,50.16
2022-09-12T18:57:55.105Z,50.30
2022-09-12T19:00:21.712Z,50.10
2022-09-12T19:02:48.228Z,50.18
2022-09-12T19:05:14.940Z,50.05
2022-09-12T19:07:41.393Z,50.13
2022-09-12T19:10:08.958Z,50.03
2022-09-12T19:12:35.492Z,49.98
2022-09-12T19:15:02.045Z,50.07
2022-09-12T19:17:28.495Z,49.73
2022-09-12T19:19:55.457Z,49.96
2022-09-12T19:22:22.189Z,50.00
2022-09-12T19:24:48.928Z,50.01
2022-09-12T19:27:16.071Z,49.72
2022-09-12T19:29:42.668Z,49.74
2022-09-12T19:32:09.119Z,49.64
2022-09-12T19:34:35.600Z,49.81
2022-09-12T19:37:02.067Z,49.79
2022-09-12T19:39:28.574Z,49.60
2022-09-12T19:41:55.057Z,49.72
2022-09-12T19:44:21.554Z,49.62
2022-09-12T19:46:48.124Z,49.91
2022-09-12T19:49:14.659Z,49.74
2022-09-12T19:51:41.516Z,49.77
2022-09-12T19:54:08.095Z,49.64
2022-09-12T19:56:34.620Z,49.74
2022-09-12T19:59:01.078Z,49.89
2022-09-12T20:01:30.643Z,49.84
2022-09-12T20:03:57.810Z,50.02
2022-09-12T20:06:25.902Z,49.71
2022-09-12T20:08:52.344Z,49.75
2022-09-12T20:11:20.339Z,49.88
2022-09-12T20:13:46.886Z,49.74
2022-09-12T20:16:22.647Z,49.77
2022-09-12T20:18:53.592Z,49.49
2022-09-12T20:21:20.819Z,49.61
2022-09-12T20:23:47.266Z,49.75
2022-09-12T20:26:13.751Z,49.79
2022-09-12T20:28:40.669Z,49.71
2022-09-12T20:31:08.951Z,49.82
2022-09-12T20:33:35.470Z,49.71
2022-09-12T20:36:09.425Z,49.70
2022-09-12T20:38:36.042Z,49.71
2022-09-12T20:41:03.031Z,49.74
2022-09-12T20:43:29.479Z,49.92
2022-09-12T20:45:55.974Z,49.71
2022-09-12T20:48:22.458Z,49.79
2022-09-12T20:50:48.936Z,49.90
2022-09-12T20:53:15.391Z,49.86
2022-09-12T20:55:49.326Z,49.74
2022-09-12T20:58:15.788Z,49.92
2022-09-12T21:00:42.227Z,49.66
2022-09-12T21:03:08.733Z,49.82
2022-09-12T21:05:35.186Z,49.86
2022-09-12T21:08:01.743Z,49.88
2022-09-12T21:10:28.204Z,49.72
2022-09-12T21:12:54.678Z,49.82
2022-09-12T21:15:21.168Z,49.86
2022-09-12T21:17:47.606Z,49.91
2022-09-12T21:20:14.117Z,49.82
2022-09-12T21:22:40.605Z,49.92
2022-09-12T21:25:07.436Z,49.79
2022-09-12T21:27:33.891Z,49.86
2022-09-12T21:30:03.205Z,49.85
2022-09-12T21:32:34.578Z,49.76
2022-09-12T21:35:01.847Z,49.74
2022-09-12T21:37:28.327Z,49.80
2022-09-12T21:39:54.823Z,49.71
2022-09-12T21:42:21.326Z,49.92
2022-09-12T21:44:47.872Z,49.87
2022-09-12T21:47:14.319Z,49.81
2022-09-12T21:49:40.767Z,49.71
2022-09-12T21:52:07.282Z,49.72
2022-09-12T21:54:36.818Z,49.83
2022-09-12T21:57:03.307Z,49.75
2022-09-12T21:59:29.752Z,49.88
2022-09-12T22:01:56.314Z,49.79
2022-09-12T22:04:22.779Z,49.79
2022-09-12T22:06:49.231Z,49.92
2022-09-12T22:09:16.880Z,49.71
2022-09-12T22:11:44.049Z,49.67
2022-09-12T22:14:10.888Z,49.89
2022-09-12T22:16:37.407Z,49.80
2022-09-12T22:19:03.888Z,49.68
2022-09-12T22:21:30.346Z,49.73
2022-09-12T22:24:15.148Z,49.63
2022-09-12T22:26:42.608Z,49.51
2022-09-12T22:29:13.219Z,49.69
2022-09-12T22:31:39.934Z,49.67
2022-09-12T22:34:06.542Z,49.57
2022-09-12T22:36:36.997Z,49.71
2022-09-12T22:39:05.986Z,49.73
2022-09-12T22:41:32.430Z,49.60
2022-09-12T22:43:59.354Z,49.57
2022-09-12T22:46:26.233Z,49.76
2022-09-12T22:48:52.844Z,49.56
2022-09-12T22:51:19.372Z,49.60
2022-09-12T22:53:46.662Z,49.58
2022-09-12T22:56:13.119Z,49.72
2022-09-12T22:58:41.308Z,49.69
2022-09-12T23:01:07.943Z,49.65
2022-09-12T23:03:35.030Z,49.54
2022-09-12T23:06:01.843Z,49.48
2022-09-12T23:08:29.558Z,49.72
2022-09-12T23:11:03.619Z,49.64
2022-09-12T23:13:30.943Z,49.63
2022-09-12T23:15:59.167Z,49.61
2022-09-12T23:18:25.910Z,49.63
2022-09-12T23:20:59.005Z,49.71
2022-09-12T23:23:25.490Z,49.48
2022-09-12T23:26:09.791Z,49.62
2022-09-12T23:28:36.144Z,49.50
2022-09-12T23:31:02.757Z,49.46
2022-09-12T23:33:29.685Z,49.46
2022-09-12T23:36:00.571Z,49.54
2022-09-12T23:38:27.123Z,49.55
2022-09-12T23:40:53.785Z,49.47
2022-09-12T23:43:20.230Z,49.47
2022-09-12T23:45:46.798Z,49.57
2022-09-12T23:48:13.297Z,49.63
2022-09-12T23:50:39.771Z,49.39
2022-09-12T23:53:06.500Z,49.53
2022-09-12T23:55:32.968Z,49.58
2022-09-12T23:57:59.420Z,49.53
